createdAt,value
2022-12-09T00:01:42.539Z,18.15
2022-12-09T00:04:17.587Z,18.08
2022-12-09T00:06:45.129Z,16.42
2022-12-09T00:09:15.839Z,16.27
2022-12-09T00:11:44.153Z,12.00
2022-12-09T00:14:12.569Z,17.17
2022-12-09T00:16:40.363Z,16.35
2022-12-09T00:26:00.472Z,17.30
2022-12-09T00:28:28.563Z,16.88
2022-12-09T00:30:59.540Z,16.33
2022-12-09T00:33:26.850Z,16.80
2022-12-09T00:35:54.030Z,16.88
2022-12-09T00:38:21.325Z,16.73
2022-12-09T00:40:48.452Z,15.65
2022-12-09T00:43:15.842Z,16.10
2022-12-09T00:45:42.980Z,16.60
2022-12-09T00:48:10.070Z,16.83
2022-12-09T00:50:37.230Z,15.23
2022-12-09T00:53:04.374Z,14.60
2022-12-09T00:55:31.802Z,15.05
2022-12-09T00:57:59.256Z,13.55
2022-12-09T01:00:26.401Z,13.70
2022-12-09T01:02:53.797Z,13.18
2022-12-09T01:05:21.353Z,13.18
2022-12-09T01:07:48.858Z,13.63
2022-12-09T01:10:16.436Z,13.48
2022-12-09T01:12:43.689Z,13.77
2022-12-09T01:15:11.345Z,13.52
2022-12-09T01:17:39.045Z,13.38
2022-12-09T01:20:07.688Z,13.40
2022-12-09T01:22:35.321Z,11.70
2022-12-09T01:25:02.645Z,12.15
2022-12-09T01:27:32.901Z,12.43
2022-12-09T01:30:00.004Z,13.85
2022-12-09T01:32:27.543Z,13.23
2022-12-09T01:34:55.178Z,13.88
2022-12-09T01:37:22.388Z,14.23
2022-12-09T01:39:49.632Z,13.20
2022-12-09T01:42:24.750Z,14.07
2022-12-09T01:45:10.592Z,13.85
2022-12-09T01:47:37.833Z,13.85
2022-12-09T01:50:05.781Z,12.70
2022-12-09T01:52:33.342Z,14.25
2022-12-09T01:55:00.578Z,14.75
2022-12-09T01:57:28.048Z,16.45
2022-12-09T01:59:55.201Z,14.32
2022-12-09T02:02:23.531Z,16.73
2022-12-09T02:04:51.236Z,16.25
2022-12-09T02:07:19.231Z,17.38
2022-12-09T02:09:46.781Z,15.70
2022-12-09T02:12:19.348Z,15.52
2022-12-09T02:15:01.621Z,16.55
2022-12-09T02:17:42.259Z,15.20
2022-12-09T02:20:15.000Z,14.27
2022-12-09T02:22:54.759Z,14.32
2022-12-09T02:25:29.020Z,13.88
2022-12-09T02:28:14.934Z,14.70
2022-12-09T02:30:49.732Z,15.93
2022-12-09T02:33:35.620Z,16.00
2022-12-09T02:36:04.440Z,15.77
2022-12-09T02:38:33.474Z,15.68
2022-12-09T02:41:06.974Z,16.52
2022-12-09T02:43:36.906Z,16.20
2022-12-09T02:46:06.001Z,17.52
2022-12-09T02:48:36.402Z,16.60
2022-12-09T02:51:11.376Z,14.45
2022-12-09T02:53:39.534Z,15.02
2022-12-09T02:56:07.450Z,15.15
2022-12-09T02:58:35.210Z,14.20
2022-12-09T03:01:02.837Z,13.43
2022-12-09T03:03:32.156Z,13.05
2022-12-09T03:06:06.060Z,14.43
2022-12-09T03:08:45.100Z,14.70
2022-12-09T03:11:20.088Z,15.13
2022-12-09T03:14:06.858Z,14.73
2022-12-09T03:16:36.117Z,14.65
2022-12-09T03:19:10.169Z,13.80
2022-12-09T03:21:40.281Z,13.85
2022-12-09T03:24:09.695Z,13.82
2022-12-09T03:26:38.351Z,13.43
2022-12-09T03:29:08.147Z,14.00
2022-12-09T03:31:37.072Z,15.00
2022-12-09T03:34:05.769Z,13.10
2022-12-09T03:36:38.512Z,12.90
2022-12-09T03:39:11.157Z,13.98
2022-12-09T03:41:39.186Z,12.95
2022-12-09T03:44:14.612Z,11.00
2022-12-09T03:46:41.928Z,11.93
2022-12-09T03:49:09.307Z,12.27
2022-12-09T03:51:42.593Z,11.20
2022-12-09T03:54:18.729Z,16.73
2022-12-09T03:56:47.573Z,21.58
2022-12-09T03:59:15.537Z,17.25
2022-12-09T04:01:44.442Z,17.42
2022-12-09T04:04:12.167Z,14.43
2022-12-09T04:06:39.565Z,16.48
2022-12-09T04:09:06.922Z,14.82
2022-12-09T04:11:34.562Z,14.25
2022-12-09T04:14:01.844Z,14.32
2022-12-09T04:16:29.486Z,13.73
2022-12-09T04:18:56.911Z,13.65
2022-12-09T04:21:24.194Z,12.57
2022-12-09T04:23:51.593Z,13.00
2022-12-09T04:26:21.220Z,12.07
2022-12-09T04:28:48.730Z,12.63
2022-12-09T04:31:17.307Z,12.48
2022-12-09T04:33:45.080Z,12.52
2022-12-09T04:36:13.978Z,12.43
2022-12-09T04:38:43.450Z,12.40
2022-12-09T04:41:11.127Z,12.00
2022-12-09T04:43:38.459Z,12.10
2022-12-09T04:46:07.538Z,11.57
2022-12-09T04:48:34.953Z,12.07
2022-12-09T04:51:02.184Z,12.57
2022-12-09T04:53:29.400Z,11.60
2022-12-09T04:56:03.708Z,9.90
2022-12-09T04:58:31.187Z,9.65
2022-12-09T05:00:58.927Z,9.68
2022-12-09T05:03:26.337Z,9.05
2022-12-09T05:05:54.060Z,9.43
2022-12-09T05:08:22.324Z,8.65
2022-12-09T05:10:52.077Z,10.20
2022-12-09T05:13:19.367Z,9.60
2022-12-09T05:15:46.535Z,8.93
2022-12-09T05:18:14.191Z,9.98
2022-12-09T05:20:41.841Z,9.13
2022-12-09T05:23:09.850Z,9.35
2022-12-09T05:25:37.915Z,9.93
2022-12-09T05:28:05.219Z,8.88
2022-12-09T05:30:32.487Z,9.50
2022-12-09T05:32:59.985Z,11.27
2022-12-09T05:35:27.362Z,11.75
2022-12-09T05:37:54.847Z,11.70
2022-12-09T05:40:22.338Z,11.55
2022-12-09T05:42:50.717Z,11.88
2022-12-09T05:45:18.007Z,13.52
2022-12-09T05:47:47.042Z,11.85
2022-12-09T05:50:15.005Z,12.57
2022-12-09T05:52:42.698Z,11.55
2022-12-09T05:55:10.553Z,12.13
2022-12-09T05:57:38.647Z,11.85
2022-12-09T06:00:07.798Z,11.05
2022-12-09T06:02:35.417Z,11.68
2022-12-09T06:05:03.185Z,11.73
2022-12-09T06:07:31.144Z,18.25
2022-12-09T06:09:58.822Z,16.33
2022-12-09T06:12:26.305Z,17.05
2022-12-09T06:14:53.823Z,17.40
2022-12-09T06:17:21.493Z,16.60
2022-12-09T06:19:49.077Z,19.33
2022-12-09T06:22:16.796Z,19.63
2022-12-09T06:24:43.994Z,19.45
2022-12-09T06:27:11.192Z,18.92
2022-12-09T06:29:38.491Z,19.83
2022-12-09T06:32:06.348Z,23.27
2022-12-09T06:34:33.731Z,21.92
2022-12-09T06:37:00.965Z,25.58
2022-12-09T06:39:28.527Z,24.67
2022-12-09T06:41:56.041Z,25.58
2022-12-09T06:44:24.280Z,28.67
2022-12-09T06:46:52.110Z,24.13
2022-12-09T06:49:19.928Z,23.23
2022-12-09T06:51:47.159Z,17.27
2022-12-09T06:54:14.745Z,16.05
2022-12-09T06:56:42.021Z,16.55
2022-12-09T06:59:10.079Z,16.10
2022-12-09T07:01:38.688Z,17.30
2022-12-09T07:04:06.597Z,19.13
2022-12-09T07:06:38.759Z,16.83
2022-12-09T07:09:08.294Z,19.98
2022-12-09T07:11:36.135Z,17.85
2022-12-09T07:14:04.444Z,18.13
2022-12-09T07:16:32.134Z,19.35
2022-12-09T07:19:00.302Z,18.95
2022-12-09T07:21:28.409Z,17.33
2022-12-09T07:23:56.038Z,17.27
2022-12-09T07:26:23.572Z,17.05
2022-12-09T07:28:51.346Z,16.83
2022-12-09T07:31:26.304Z,18.98
2022-12-09T07:33:54.670Z,18.98
2022-12-09T07:36:25.765Z,20.23
2022-12-09T07:39:00.238Z,21.58
2022-12-09T07:41:28.125Z,18.88
2022-12-09T07:43:55.815Z,20.17
2022-12-09T07:46:24.225Z,19.00
2022-12-09T07:48:51.975Z,18.10
2022-12-09T07:51:19.423Z,16.52
2022-12-09T07:53:47.913Z,15.77
2022-12-09T07:56:16.462Z,14.27
2022-12-09T07:58:44.734Z,13.85
2022-12-09T08:01:13.419Z,13.07
2022-12-09T08:03:42.402Z,13.50
2022-12-09T08:06:12.855Z,13.25
2022-12-09T08:08:40.916Z,11.20
2022-12-09T08:11:09.445Z,10.85
2022-12-09T08:13:37.326Z,10.88
2022-12-09T08:16:08.577Z,12.20
2022-12-09T08:21:07.490Z,13.80
2022-12-09T08:23:35.534Z,15.75
2022-12-09T08:26:03.146Z,17.38
2022-12-09T08:28:30.715Z,18.17
2022-12-09T08:30:59.269Z,16.98
2022-12-09T08:33:26.931Z,20.30
2022-12-09T08:35:54.228Z,21.33
2022-12-09T08:38:22.185Z,28.15
2022-12-09T08:40:49.433Z,31.48
2022-12-09T08:43:16.655Z,37.45
2022-12-09T08:45:44.319Z,40.53
2022-12-09T08:48:11.987Z,32.45
2022-12-09T08:50:39.433Z,34.97
2022-12-09T08:53:06.685Z,31.30
2022-12-09T08:55:34.920Z,26.20
2022-12-09T08:58:02.956Z,24.55
2022-12-09T09:00:30.409Z,17.02
2022-12-09T09:02:57.611Z,16.45
2022-12-09T09:05:25.873Z,17.40
2022-12-09T09:07:53.342Z,16.90
2022-12-09T09:10:20.886Z,15.57
2022-12-09T09:12:48.591Z,14.85
2022-12-09T09:15:16.240Z,14.90
2022-12-09T09:17:49.846Z,15.20
2022-12-09T09:20:19.167Z,15.63
2022-12-09T09:22:46.449Z,16.38
2022-12-09T09:25:14.563Z,16.50
2022-12-09T09:27:42.138Z,17.42
2022-12-09T09:30:10.500Z,15.15
2022-12-09T09:32:38.032Z,17.20
2022-12-09T09:35:05.721Z,17.20
2022-12-09T09:37:33.684Z,17.02
2022-12-09T09:40:01.147Z,16.42
2022-12-09T09:42:35.156Z,14.75
2022-12-09T09:45:06.205Z,14.80
2022-12-09T09:47:39.875Z,15.38
2022-12-09T09:50:14.923Z,14.77
2022-12-09T09:52:43.395Z,21.65
2022-12-09T09:55:18.395Z,14.48
2022-12-09T09:57:53.672Z,25.27
2022-12-09T10:00:41.564Z,16.63
2022-12-09T10:03:20.136Z,17.30
2022-12-09T10:05:54.124Z,16.23
2022-12-09T10:08:21.869Z,15.20
2022-12-09T10:10:51.845Z,17.70
2022-12-09T10:13:41.966Z,16.30
2022-12-09T10:16:37.061Z,17.70
2022-12-09T10:19:14.775Z,19.08
2022-12-09T10:21:44.383Z,17.88
2022-12-09T10:24:17.788Z,19.23
2022-12-09T10:26:58.856Z,18.38
2022-12-09T10:29:58.419Z,15.93
2022-12-09T10:32:34.585Z,23.45
2022-12-09T10:35:02.780Z,19.90
2022-12-09T10:37:36.118Z,15.88
2022-12-09T10:40:12.151Z,16.08
2022-12-09T10:43:08.846Z,14.68
2022-12-09T10:48:49.382Z,16.13
2022-12-09T10:51:17.527Z,15.65
2022-12-09T10:53:55.919Z,15.52
2022-12-09T10:56:29.071Z,15.52
2022-12-09T10:59:17.992Z,17.20
2022-12-09T11:01:53.168Z,15.93
2022-12-09T11:04:34.155Z,15.68
2022-12-09T11:07:07.706Z,16.40
2022-12-09T11:09:38.775Z,16.20
2022-12-09T11:12:15.106Z,16.98
2022-12-09T11:14:51.115Z,18.40
2022-12-09T11:17:25.185Z,19.70
2022-12-09T11:19:55.347Z,22.10
2022-12-09T11:22:36.368Z,20.13
2022-12-09T11:25:12.946Z,20.75
2022-12-09T11:27:47.503Z,26.13
2022-12-09T11:30:21.429Z,25.63
2022-12-09T11:33:02.381Z,25.23
2022-12-09T11:35:32.142Z,24.98
2022-12-09T11:38:12.948Z,26.38
2022-12-09T11:40:39.673Z,28.77
2022-12-09T11:43:06.763Z,29.30
2022-12-09T11:45:36.972Z,26.42
2022-12-09T11:48:32.026Z,28.45
2022-12-09T11:51:01.919Z,28.92
2022-12-09T11:53:32.917Z,28.98
2022-12-09T11:56:04.136Z,29.67
2022-12-09T11:59:04.134Z,29.75
2022-12-09T12:01:59.082Z,27.40
2022-12-09T12:04:34.074Z,25.88
2022-12-09T12:07:15.900Z,26.80
2022-12-09T12:09:58.582Z,29.92
2022-12-09T12:12:35.343Z,28.95
2022-12-09T12:15:12.389Z,30.92
2022-12-09T12:17:45.264Z,28.92
2022-12-09T12:20:13.580Z,29.10
2022-12-09T12:23:06.013Z,32.05
2022-12-09T12:25:44.962Z,31.60
2022-12-09T12:28:30.420Z,32.15
2022-12-09T12:31:06.339Z,33.13
2022-12-09T12:34:07.672Z,33.83
2022-12-09T12:36:46.588Z,35.00
2022-12-09T12:39:36.147Z,33.33
2022-12-09T12:42:19.973Z,34.00
2022-12-09T12:45:25.165Z,33.53
2022-12-09T12:47:54.763Z,33.22
2022-12-09T12:50:48.741Z,31.90
2022-12-09T12:53:15.419Z,31.92
2022-12-09T12:55:49.364Z,31.83
2022-12-09T12:58:39.548Z,33.15
2022-12-09T13:01:34.856Z,29.83
2022-12-09T13:04:22.963Z,30.73
2022-12-09T13:07:05.565Z,31.70
2022-12-09T13:10:01.961Z,32.13
2022-12-09T13:12:53.454Z,31.45
2022-12-09T13:17:50.679Z,33.65
2022-12-09T13:20:26.035Z,33.70
2022-12-09T13:23:24.629Z,35.55
2022-12-09T13:26:10.687Z,37.22
2022-12-09T13:29:02.659Z,38.60
2022-12-09T13:31:31.735Z,35.67
2022-12-09T13:34:17.142Z,38.25
2022-12-09T13:36:46.331Z,32.83
2022-12-09T13:39:32.859Z,32.47
2022-12-09T13:42:18.157Z,32.83
2022-12-09T13:44:46.453Z,36.67
2022-12-09T13:47:34.992Z,34.20
2022-12-09T13:50:05.708Z,29.90
2022-12-09T13:52:42.333Z,32.63
2022-12-09T13:55:31.656Z,34.10
2022-12-09T13:58:30.442Z,34.10
2022-12-09T14:01:12.235Z,32.13
2022-12-09T14:03:53.811Z,33.53
2022-12-09T14:06:40.305Z,32.22
2022-12-09T14:09:30.804Z,31.98
2022-12-09T14:12:00.684Z,33.03
2022-12-09T14:14:27.367Z,31.75
2022-12-09T14:16:55.358Z,33.83
2022-12-09T14:19:25.118Z,32.10
2022-12-09T14:22:20.190Z,33.25
2022-12-09T14:24:57.134Z,32.88
2022-12-09T14:27:25.617Z,35.05
2022-12-09T14:29:55.549Z,36.72
2022-12-09T14:32:37.080Z,37.88
2022-12-09T14:35:09.665Z,35.67
2022-12-09T14:37:41.589Z,37.67
2022-12-09T14:40:14.116Z,36.85
2022-12-09T14:42:43.948Z,33.60
2022-12-09T14:45:23.304Z,37.85
2022-12-09T14:47:50.752Z,39.08
2022-12-09T14:50:20.449Z,39.50
2022-12-09T14:52:53.168Z,41.95
2022-12-09T14:55:23.521Z,45.35
2022-12-09T14:57:51.981Z,46.43
2022-12-09T15:00:40.962Z,44.40
2022-12-09T15:03:33.272Z,45.38
2022-12-09T15:06:17.568Z,42.65
2022-12-09T15:08:45.043Z,45.67
2022-12-09T15:11:21.571Z,46.88
2022-12-09T15:13:51.163Z,45.92
2022-12-09T15:16:24.583Z,43.95
2022-12-09T15:18:53.001Z,45.05
2022-12-09T15:21:26.092Z,45.85
2022-12-09T15:23:53.086Z,37.67
2022-12-09T15:26:27.319Z,41.50
2022-12-09T15:28:59.533Z,46.20
2022-12-09T15:31:28.731Z,47.17
2022-12-09T15:33:58.029Z,43.65
2022-12-09T15:36:32.701Z,40.17
2022-12-09T15:39:08.126Z,38.97
2022-12-09T15:42:04.132Z,40.25
2022-12-09T15:44:36.642Z,39.35
2022-12-09T15:47:10.508Z,38.85
2022-12-09T15:49:49.262Z,31.63
2022-12-09T15:52:18.519Z,28.17
2022-12-09T15:54:46.502Z,29.85
2022-12-09T15:57:18.290Z,30.02
2022-12-09T15:59:55.539Z,32.97
2022-12-09T16:02:29.132Z,30.23
2022-12-09T16:05:00.909Z,32.15
2022-12-09T16:07:28.157Z,33.00
2022-12-09T16:10:07.386Z,35.95
2022-12-09T16:12:36.345Z,34.08
2022-12-09T16:15:05.207Z,33.38
2022-12-09T16:17:37.733Z,34.20
2022-12-09T16:20:21.945Z,35.20
2022-12-09T16:22:50.560Z,36.25
2022-12-09T16:25:21.800Z,43.38
2022-12-09T16:27:56.032Z,44.17
2022-12-09T16:30:26.039Z,42.80
2022-12-09T16:32:56.925Z,43.72
2022-12-09T16:35:34.035Z,46.22
2022-12-09T16:38:13.263Z,42.75
2022-12-09T16:40:45.995Z,44.53
2022-12-09T16:43:15.721Z,41.17
2022-12-09T16:45:43.967Z,36.60
2022-12-09T16:48:11.711Z,40.78
2022-12-09T16:51:04.601Z,35.10
2022-12-09T16:53:38.814Z,39.60
2022-12-09T16:56:05.834Z,41.33
2022-12-09T16:58:34.322Z,38.92
2022-12-09T17:01:02.160Z,43.75
2022-12-09T17:03:29.425Z,42.42
2022-12-09T17:05:56.593Z,45.20
2022-12-09T17:08:24.091Z,46.38
2022-12-09T17:10:51.484Z,50.20
2022-12-09T17:13:18.649Z,56.97
2022-12-09T17:15:45.825Z,53.83
2022-12-09T17:18:13.004Z,49.70
2022-12-09T17:20:40.111Z,61.08
2022-12-09T17:23:07.248Z,60.38
2022-12-09T17:25:34.463Z,55.15
2022-12-09T17:28:02.533Z,59.22
2022-12-09T17:30:29.988Z,64.82
2022-12-09T17:32:58.795Z,67.10
2022-12-09T17:35:25.988Z,61.97
2022-12-09T17:37:53.107Z,54.95
2022-12-09T17:40:20.288Z,55.97
2022-12-09T17:42:47.420Z,55.63
2022-12-09T17:45:14.589Z,60.03
2022-12-09T17:47:41.770Z,64.35
2022-12-09T17:50:09.536Z,65.15
2022-12-09T17:52:36.935Z,60.72
2022-12-09T17:55:04.941Z,52.17
2022-12-09T17:57:32.160Z,51.95
2022-12-09T17:59:59.259Z,48.58
2022-12-09T18:02:26.588Z,51.38
2022-12-09T18:04:53.763Z,51.65
2022-12-09T18:07:20.881Z,49.60
2022-12-09T18:09:54.229Z,48.55
2022-12-09T18:12:21.720Z,51.22
2022-12-09T18:14:49.039Z,50.97
2022-12-09T18:17:16.236Z,46.25
2022-12-09T18:19:43.384Z,45.78
2022-12-09T18:22:10.586Z,43.70
2022-12-09T18:24:37.757Z,44.67
2022-12-09T18:27:04.924Z,45.45
2022-12-09T18:29:32.373Z,45.90
2022-12-09T18:31:59.822Z,44.03
2022-12-09T18:34:27.886Z,46.28
2022-12-09T18:36:55.561Z,43.35
2022-12-09T18:39:22.920Z,43.65
2022-12-09T18:41:50.096Z,42.40
2022-12-09T18:44:17.318Z,42.15
2022-12-09T18:46:45.713Z,44.22
2022-12-09T18:49:14.528Z,45.03
2022-12-09T18:51:42.437Z,46.33
2022-12-09T18:54:10.010Z,47.38
2022-12-09T18:56:37.237Z,42.47
2022-12-09T18:59:07.090Z,45.13
2022-12-09T19:01:39.074Z,42.58
2022-12-09T19:04:07.223Z,47.10
2022-12-09T19:06:39.175Z,50.53
2022-12-09T19:09:08.134Z,51.50
2022-12-09T19:11:37.566Z,47.88
2022-12-09T19:14:05.288Z,47.75
2022-12-09T19:16:32.690Z,49.80
2022-12-09T19:19:05.447Z,57.70
2022-12-09T19:21:35.023Z,56.10
2022-12-09T19:24:05.411Z,56.08
2022-12-09T19:26:33.767Z,55.23
2022-12-09T19:29:02.584Z,55.35
2022-12-09T19:31:29.723Z,50.65
2022-12-09T19:33:57.680Z,58.78
2022-12-09T19:36:25.756Z,55.35
2022-12-09T19:38:53.325Z,59.75
2022-12-09T19:41:20.973Z,64.97
2022-12-09T19:43:48.217Z,66.95
2022-12-09T19:46:15.941Z,57.83
2022-12-09T19:48:47.104Z,65.20
2022-12-09T19:51:15.534Z,57.83
2022-12-09T19:53:42.986Z,70.55
2022-12-09T19:56:14.721Z,65.75
2022-12-09T19:58:42.359Z,69.25
2022-12-09T20:01:17.515Z,74.63
2022-12-09T20:03:45.833Z,72.75
2022-12-09T20:06:13.896Z,75.57
2022-12-09T20:08:41.339Z,82.35
2022-12-09T20:11:16.672Z,63.00
2022-12-09T20:13:44.322Z,92.15
2022-12-09T20:16:13.503Z,70.53
2022-12-09T20:18:40.984Z,71.68
2022-12-09T20:21:09.394Z,75.65
2022-12-09T20:23:37.344Z,69.65
2022-12-09T20:39:22.113Z,59.35
2022-12-09T20:41:49.488Z,51.08
2022-12-09T20:44:17.366Z,51.83
2022-12-09T20:46:51.918Z,52.67
2022-12-09T20:49:26.500Z,56.67
2022-12-09T20:51:54.629Z,58.78
2022-12-09T20:54:21.987Z,57.90
2022-12-09T20:56:49.191Z,69.30
2022-12-09T20:59:16.564Z,72.63
2022-12-09T21:01:45.740Z,91.25
2022-12-09T21:04:12.847Z,65.70
2022-12-09T21:06:40.972Z,65.68
2022-12-09T21:09:09.892Z,55.13
2022-12-09T21:11:37.172Z,56.35
2022-12-09T21:14:04.997Z,54.20
2022-12-09T21:16:33.424Z,68.80
2022-12-09T21:19:10.293Z,76.15
2022-12-09T21:21:38.771Z,60.10
2022-12-09T21:24:06.145Z,51.92
2022-12-09T21:26:33.798Z,58.75
2022-12-09T21:29:01.912Z,63.88
2022-12-09T21:31:30.547Z,60.90
2022-12-09T21:33:58.956Z,56.97
2022-12-09T21:36:27.004Z,59.80
2022-12-09T21:38:54.405Z,53.75
2022-12-09T21:41:23.012Z,52.92
2022-12-09T21:43:50.439Z,52.75
2022-12-09T21:46:21.701Z,54.47
2022-12-09T21:51:19.850Z,61.03
2022-12-09T21:53:47.089Z,51.80
2022-12-09T21:56:15.873Z,57.75
2022-12-09T21:58:43.620Z,61.08
2022-12-09T22:01:13.653Z,59.03
2022-12-09T22:03:42.063Z,54.58
2022-12-09T22:06:10.375Z,66.63
2022-12-09T22:08:38.280Z,49.33
2022-12-09T22:11:14.566Z,47.53
2022-12-09T22:13:41.675Z,44.72
2022-12-09T22:16:08.780Z,43.17
2022-12-09T22:18:36.163Z,50.10
2022-12-09T22:23:51.787Z,50.70
2022-12-09T22:26:19.740Z,46.15
2022-12-09T22:28:46.981Z,47.17
2022-12-09T22:31:15.714Z,46.33
2022-12-09T22:33:42.900Z,43.13
2022-12-09T22:36:11.859Z,50.13
2022-12-09T22:38:40.118Z,42.92
2022-12-09T22:41:08.180Z,49.47
2022-12-09T22:43:38.221Z,41.88
2022-12-09T22:46:10.212Z,45.40
2022-12-09T22:48:37.694Z,43.10
2022-12-09T22:51:12.422Z,43.22
2022-12-09T22:53:39.593Z,42.22
2022-12-09T22:56:07.009Z,41.03
2022-12-09T22:58:34.907Z,43.67
2022-12-09T23:01:02.093Z,60.88
2022-12-09T23:03:29.432Z,55.15
2022-12-09T23:05:56.632Z,50.65
2022-12-09T23:08:23.812Z,45.78
2022-12-09T23:10:50.940Z,49.25
2022-12-09T23:13:18.188Z,43.13
2022-12-09T23:15:45.375Z,46.17
2022-12-09T23:18:12.528Z,62.28
2022-12-09T23:20:39.716Z,45.47
2022-12-09T23:23:06.837Z,43.50
2022-12-09T23:25:34.215Z,52.20
2022-12-09T23:28:01.403Z,44.65
2022-12-09T23:30:28.520Z,53.60
2022-12-09T23:32:55.825Z,45.10
2022-12-09T23:35:22.997Z,47.08
2022-12-09T23:37:50.121Z,46.10
2022-12-09T23:40:17.263Z,45.80
2022-12-09T23:42:44.443Z,41.60
2022-12-09T23:45:11.621Z,42.78
2022-12-09T23:47:38.940Z,41.08
2022-12-09T23:50:06.669Z,47.33
2022-12-09T23:52:37.598Z,44.65
2022-12-09T23:55:05.179Z,40.17
2022-12-09T23:57:32.453Z,44.80
